sensor_id;sensor_type;location;lat;lon;timestamp;P1;durP1;ratioP1;P2;durP2;ratioP2
1436;SDS011;712;51.026;13.792;2023-03-01T00:01:26;28.10;;;12.75;;
1436;SDS011;712;51.026;13.792;2023-03-01T00:03:51;28.83;;;13.30;;
1436;SDS011;712;51.026;13.792;2023-03-01T00:06:17;27.85;;;12.45;;
1436;SDS011;712;51.026;13.792;2023-03-01T00:08:42;29.17;;;13.05;;
1436;SDS011;712;51.026;13.792;2023-03-01T00:13:33;28.00;;;12.30;;
1436;SDS011;712;51.026;13.792;2023-03-01T00:15:58;29.40;;;12.88;;
1436;SDS011;712;51.026;13.792;2023-03-01T00:18:23;28.53;;;12.10;;
1436;SDS011;712;51.026;13.792;2023-03-01T00:20:52;28.23;;;13.70;;
1436;SDS011;712;51.026;13.792;2023-03-01T00:23:17;30.35;;;13.75;;
1436;SDS011;712;51.026;13.792;2023-03-01T00:25:43;28.93;;;12.33;;
1436;SDS011;712;51.026;13.792;2023-03-01T00:28:08;29.48;;;12.18;;
1436;SDS011;712;51.026;13.792;2023-03-01T00:30:33;29.13;;;12.45;;
1436;SDS011;712;51.026;13.792;2023-03-01T00:32:58;34.03;;;14.43;;
1436;SDS011;712;51.026;13.792;2023-03-01T00:35:24;32.63;;;13.63;;
1436;SDS011;712;51.026;13.792;2023-03-01T00:37:49;31.43;;;13.50;;
1436;SDS011;712;51.026;13.792;2023-03-01T00:40:22;30.30;;;13.38;;
1436;SDS011;712;51.026;13.792;2023-03-01T00:42:47;31.50;;;13.23;;
1436;SDS011;712;51.026;13.792;2023-03-01T00:45:12;29.10;;;12.68;;
1436;SDS011;712;51.026;13.792;2023-03-01T00:47:38;29.48;;;12.10;;
1436;SDS011;712;51.026;13.792;2023-03-01T00:50:03;31.00;;;12.20;;
1436;SDS011;712;51.026;13.792;2023-03-01T00:52:28;33.83;;;13.03;;
1436;SDS011;712;51.026;13.792;2023-03-01T00:54:53;30.60;;;12.88;;
1436;SDS011;712;51.026;13.792;2023-03-01T00:57:19;32.65;;;13.50;;
1436;SDS011;712;51.026;13.792;2023-03-01T00:59:44;31.52;;;13.05;;
1436;SDS011;712;51.026;13.792;2023-03-01T01:02:09;30.00;;;12.90;;
1436;SDS011;712;51.026;13.792;2023-03-01T01:04:34;27.07;;;11.70;;
1436;SDS011;712;51.026;13.792;2023-03-01T01:06:59;33.25;;;13.07;;
1436;SDS011;712;51.026;13.792;2023-03-01T01:09:24;31.27;;;12.77;;
1436;SDS011;712;51.026;13.792;2023-03-01T01:11:50;30.77;;;12.70;;
1436;SDS011;712;51.026;13.792;2023-03-01T01:14:15;28.73;;;12.95;;
1436;SDS011;712;51.026;13.792;2023-03-01T01:16:41;31.85;;;13.02;;
1436;SDS011;712;51.026;13.792;2023-03-01T01:19:06;28.47;;;12.97;;
1436;SDS011;712;51.026;13.792;2023-03-01T01:21:31;25.17;;;11.30;;
1436;SDS011;712;51.026;13.792;2023-03-01T01:23:57;30.05;;;12.57;;
1436;SDS011;712;51.026;13.792;2023-03-01T01:26:23;27.57;;;12.40;;
1436;SDS011;712;51.026;13.792;2023-03-01T01:28:49;25.95;;;11.48;;
1436;SDS011;712;51.026;13.792;2023-03-01T01:31:14;26.40;;;11.27;;
1436;SDS011;712;51.026;13.792;2023-03-01T01:33:39;29.60;;;11.80;;
1436;SDS011;712;51.026;13.792;2023-03-01T01:36:05;27.07;;;11.70;;
1436;SDS011;712;51.026;13.792;2023-03-01T01:38:30;26.38;;;11.30;;
1436;SDS011;712;51.026;13.792;2023-03-01T01:40:56;26.63;;;11.10;;
1436;SDS011;712;51.026;13.792;2023-03-01T01:43:23;28.77;;;12.00;;
1436;SDS011;712;51.026;13.792;2023-03-01T01:45:49;30.35;;;12.18;;
1436;SDS011;712;51.026;13.792;2023-03-01T01:48:16;32.63;;;13.15;;
1436;SDS011;712;51.026;13.792;2023-03-01T01:50:43;30.15;;;13.18;;
1436;SDS011;712;51.026;13.792;2023-03-01T01:53:11;33.80;;;13.98;;
1436;SDS011;712;51.026;13.792;2023-03-01T01:55:37;30.30;;;12.38;;
1436;SDS011;712;51.026;13.792;2023-03-01T01:58:04;24.98;;;11.18;;
1436;SDS011;712;51.026;13.792;2023-03-01T02:00:30;26.48;;;11.45;;
1436;SDS011;712;51.026;13.792;2023-03-01T02:02:57;26.83;;;11.30;;
1436;SDS011;712;51.026;13.792;2023-03-01T02:07:51;28.58;;;11.88;;
1436;SDS011;712;51.026;13.792;2023-03-01T02:10:17;31.52;;;12.35;;
1436;SDS011;712;51.026;13.792;2023-03-01T02:12:42;29.53;;;11.77;;
1436;SDS011;712;51.026;13.792;2023-03-01T02:15:07;30.80;;;12.60;;
1436;SDS011;712;51.026;13.792;2023-03-01T02:17:32;26.93;;;11.50;;
1436;SDS011;712;51.026;13.792;2023-03-01T02:20:04;24.95;;;11.40;;
1436;SDS011;712;51.026;13.792;2023-03-01T02:22:34;25.27;;;10.85;;
1436;SDS011;712;51.026;13.792;2023-03-01T02:25:04;31.92;;;12.88;;
1436;SDS011;712;51.026;13.792;2023-03-01T02:27:49;29.00;;;11.80;;
1436;SDS011;712;51.026;13.792;2023-03-01T02:30:18;26.95;;;11.52;;
1436;SDS011;712;51.026;13.792;2023-03-01T02:32:43;28.92;;;11.95;;
1436;SDS011;712;51.026;13.792;2023-03-01T02:35:10;30.63;;;11.75;;
1436;SDS011;712;51.026;13.792;2023-03-01T02:37:36;31.88;;;11.60;;
1436;SDS011;712;51.026;13.792;2023-03-01T02:40:04;32.53;;;12.38;;
1436;SDS011;712;51.026;13.792;2023-03-01T02:42:31;28.95;;;12.43;;
1436;SDS011;712;51.026;13.792;2023-03-01T02:44:59;29.05;;;12.32;;
1436;SDS011;712;51.026;13.792;2023-03-01T02:47:24;32.70;;;12.57;;
1436;SDS011;712;51.026;13.792;2023-03-01T02:49:49;31.23;;;12.87;;
1436;SDS011;712;51.026;13.792;2023-03-01T02:54:40;30.60;;;12.17;;
1436;SDS011;712;51.026;13.792;2023-03-01T02:57:07;28.73;;;12.25;;
1436;SDS011;712;51.026;13.792;2023-03-01T02:59:33;29.38;;;11.63;;
1436;SDS011;712;51.026;13.792;2023-03-01T03:02:04;28.33;;;12.25;;
1436;SDS011;712;51.026;13.792;2023-03-01T03:04:29;31.33;;;13.05;;
1436;SDS011;712;51.026;13.792;2023-03-01T03:06:55;29.27;;;12.77;;
1436;SDS011;712;51.026;13.792;2023-03-01T03:09:20;29.25;;;11.70;;
1436;SDS011;712;51.026;13.792;2023-03-01T03:11:45;29.47;;;11.67;;
1436;SDS011;712;51.026;13.792;2023-03-01T03:14:11;28.63;;;11.45;;
1436;SDS011;712;51.026;13.792;2023-03-01T03:16:43;29.35;;;12.63;;
1436;SDS011;712;51.026;13.792;2023-03-01T03:19:08;31.63;;;12.18;;
1436;SDS011;712;51.026;13.792;2023-03-01T03:21:34;26.67;;;10.97;;
1436;SDS011;712;51.026;13.792;2023-03-01T03:23:59;30.27;;;12.50;;
1436;SDS011;712;51.026;13.792;2023-03-01T03:26:24;29.33;;;11.88;;
1436;SDS011;712;51.026;13.792;2023-03-01T03:28:50;27.05;;;11.90;;
1436;SDS011;712;51.026;13.792;2023-03-01T03:31:15;27.23;;;11.40;;
1436;SDS011;712;51.026;13.792;2023-03-01T03:33:40;25.90;;;10.67;;
1436;SDS011;712;51.026;13.792;2023-03-01T03:36:05;30.30;;;12.40;;
1436;SDS011;712;51.026;13.792;2023-03-01T03:38:31;25.20;;;11.13;;
1436;SDS011;712;51.026;13.792;2023-03-01T03:41:03;25.40;;;10.65;;
1436;SDS011;712;51.026;13.792;2023-03-01T03:43:30;26.90;;;11.90;;
1436;SDS011;712;51.026;13.792;2023-03-01T03:45:55;31.25;;;12.05;;
1436;SDS011;712;51.026;13.792;2023-03-01T03:48:22;27.25;;;10.88;;
1436;SDS011;712;51.026;13.792;2023-03-01T03:50:48;28.07;;;11.40;;
1436;SDS011;712;51.026;13.792;2023-03-01T03:53:13;28.23;;;11.02;;
1436;SDS011;712;51.026;13.792;2023-03-01T03:55:39;26.60;;;10.77;;
1436;SDS011;712;51.026;13.792;2023-03-01T03:58:05;25.57;;;10.97;;
1436;SDS011;712;51.026;13.792;2023-03-01T04:00:35;24.83;;;11.02;;
1436;SDS011;712;51.026;13.792;2023-03-01T04:03:02;26.98;;;11.68;;
1436;SDS011;712;51.026;13.792;2023-03-01T04:05:28;27.15;;;11.27;;
1436;SDS011;712;51.026;13.792;2023-03-01T04:07:53;27.60;;;11.02;;
1436;SDS011;712;51.026;13.792;2023-03-01T04:10:26;29.55;;;12.23;;
1436;SDS011;712;51.026;13.792;2023-03-01T04:12:51;28.33;;;11.02;;
1436;SDS011;712;51.026;13.792;2023-03-01T04:15:17;29.92;;;11.98;;
1436;SDS011;712;51.026;13.792;2023-03-01T04:17:43;26.07;;;11.57;;
1436;SDS011;712;51.026;13.792;2023-03-01T04:20:09;26.75;;;11.20;;
1436;SDS011;712;51.026;13.792;2023-03-01T04:22:34;29.98;;;11.93;;
1436;SDS011;712;51.026;13.792;2023-03-01T04:25:00;25.13;;;11.05;;
1436;SDS011;712;51.026;13.792;2023-03-01T04:27:31;27.23;;;10.32;;
1436;SDS011;712;51.026;13.792;2023-03-01T04:29:56;29.47;;;11.47;;
1436;SDS011;712;51.026;13.792;2023-03-01T04:32:21;30.33;;;11.93;;
1436;SDS011;712;51.026;13.792;2023-03-01T04:34:46;27.63;;;10.77;;
1436;SDS011;712;51.026;13.792;2023-03-01T04:37:11;25.37;;;10.93;;
1436;SDS011;712;51.026;13.792;2023-03-01T04:39:36;28.83;;;11.60;;
1436;SDS011;712;51.026;13.792;2023-03-01T04:42:10;31.02;;;11.98;;
1436;SDS011;712;51.026;13.792;2023-03-01T04:44:35;24.00;;;10.63;;
1436;SDS011;712;51.026;13.792;2023-03-01T04:47:00;26.40;;;10.83;;
1436;SDS011;712;51.026;13.792;2023-03-01T04:49:25;28.50;;;11.38;;
1436;SDS011;712;51.026;13.792;2023-03-01T04:51:50;28.38;;;10.90;;
1436;SDS011;712;51.026;13.792;2023-03-01T04:54:16;27.63;;;11.15;;
1436;SDS011;712;51.026;13.792;2023-03-01T04:56:41;28.93;;;11.70;;
1436;SDS011;712;51.026;13.792;2023-03-01T04:59:06;27.30;;;10.98;;
1436;SDS011;712;51.026;13.792;2023-03-01T05:01:33;27.90;;;11.38;;
1436;SDS011;712;51.026;13.792;2023-03-01T05:04:00;29.45;;;12.30;;
1436;SDS011;712;51.026;13.792;2023-03-01T05:06:28;27.15;;;11.30;;
1436;SDS011;712;51.026;13.792;2023-03-01T05:08:53;28.63;;;11.52;;
1436;SDS011;712;51.026;13.792;2023-03-01T05:11:18;28.80;;;11.65;;
1436;SDS011;712;51.026;13.792;2023-03-01T05:13:43;26.93;;;11.27;;
1436;SDS011;712;51.026;13.792;2023-03-01T05:16:08;27.43;;;11.47;;
1436;SDS011;712;51.026;13.792;2023-03-01T05:18:37;28.40;;;11.35;;
1436;SDS011;712;51.026;13.792;2023-03-01T05:21:03;31.73;;;11.93;;
1436;SDS011;712;51.026;13.792;2023-03-01T05:23:29;26.65;;;10.77;;
1436;SDS011;712;51.026;13.792;2023-03-01T05:25:57;27.95;;;11.32;;
1436;SDS011;712;51.026;13.792;2023-03-01T05:28:22;29.13;;;11.63;;
1436;SDS011;712;51.026;13.792;2023-03-01T05:30:47;30.27;;;12.25;;
1436;SDS011;712;51.026;13.792;2023-03-01T05:33:12;27.58;;;10.88;;
1436;SDS011;712;51.026;13.792;2023-03-01T05:35:41;30.40;;;12.48;;
1436;SDS011;712;51.026;13.792;2023-03-01T05:38:07;28.63;;;11.25;;
1436;SDS011;712;51.026;13.792;2023-03-01T05:40:32;30.55;;;12.05;;
1436;SDS011;712;51.026;13.792;2023-03-01T05:42:58;30.42;;;10.95;;
1436;SDS011;712;51.026;13.792;2023-03-01T05:45:23;29.70;;;11.13;;
1436;SDS011;712;51.026;13.792;2023-03-01T05:47:49;25.75;;;10.75;;
1436;SDS011;712;51.026;13.792;2023-03-01T05:50:19;28.05;;;11.48;;
1436;SDS011;712;51.026;13.792;2023-03-01T05:52:52;26.90;;;11.00;;
1436;SDS011;712;51.026;13.792;2023-03-01T05:55:21;29.73;;;11.73;;
1436;SDS011;712;51.026;13.792;2023-03-01T05:57:46;33.20;;;12.13;;
1436;SDS011;712;51.026;13.792;2023-03-01T06:00:12;31.00;;;12.63;;
1436;SDS011;712;51.026;13.792;2023-03-01T06:02:38;32.95;;;12.15;;
1436;SDS011;712;51.026;13.792;2023-03-01T06:05:04;34.88;;;13.63;;
1436;SDS011;712;51.026;13.792;2023-03-01T06:07:29;28.63;;;11.68;;
1436;SDS011;712;51.026;13.792;2023-03-01T06:09:54;27.13;;;12.03;;
1436;SDS011;712;51.026;13.792;2023-03-01T06:12:20;28.37;;;11.87;;
1436;SDS011;712;51.026;13.792;2023-03-01T06:14:45;30.63;;;11.82;;
1436;SDS011;712;51.026;13.792;2023-03-01T06:17:11;29.13;;;11.85;;
1436;SDS011;712;51.026;13.792;2023-03-01T06:19:36;31.07;;;12.40;;
1436;SDS011;712;51.026;13.792;2023-03-01T06:22:01;31.00;;;11.50;;
1436;SDS011;712;51.026;13.792;2023-03-01T06:24:26;26.70;;;11.13;;
1436;SDS011;712;51.026;13.792;2023-03-01T06:26:53;29.95;;;12.27;;
1436;SDS011;712;51.026;13.792;2023-03-01T06:29:18;27.77;;;11.30;;
1436;SDS011;712;51.026;13.792;2023-03-01T06:31:43;27.70;;;11.77;;
1436;SDS011;712;51.026;13.792;2023-03-01T06:34:10;27.17;;;10.85;;
1436;SDS011;712;51.026;13.792;2023-03-01T06:36:38;30.17;;;12.20;;
1436;SDS011;712;51.026;13.792;2023-03-01T06:39:03;26.48;;;11.05;;
1436;SDS011;712;51.026;13.792;2023-03-01T06:41:30;27.35;;;11.75;;
1436;SDS011;712;51.026;13.792;2023-03-01T06:43:55;31.13;;;12.20;;
1436;SDS011;712;51.026;13.792;2023-03-01T06:46:20;28.30;;;11.30;;
1436;SDS011;712;51.026;13.792;2023-03-01T06:48:46;26.90;;;11.48;;
1436;SDS011;712;51.026;13.792;2023-03-01T06:51:11;31.33;;;11.70;;
1436;SDS011;712;51.026;13.792;2023-03-01T06:53:36;27.52;;;11.85;;
1436;SDS011;712;51.026;13.792;2023-03-01T06:56:02;27.73;;;11.88;;
1436;SDS011;712;51.026;13.792;2023-03-01T06:58:27;31.00;;;12.00;;
1436;SDS011;712;51.026;13.792;2023-03-01T07:00:52;29.23;;;11.43;;
1436;SDS011;712;51.026;13.792;2023-03-01T07:03:17;28.97;;;11.70;;
1436;SDS011;712;51.026;13.792;2023-03-01T07:05:42;25.07;;;11.27;;
1436;SDS011;712;51.026;13.792;2023-03-01T07:08:09;30.10;;;11.82;;
1436;SDS011;712;51.026;13.792;2023-03-01T07:10:34;25.53;;;11.73;;
1436;SDS011;712;51.026;13.792;2023-03-01T07:12:59;31.08;;;12.07;;
1436;SDS011;712;51.026;13.792;2023-03-01T07:15:25;30.95;;;12.90;;
1436;SDS011;712;51.026;13.792;2023-03-01T07:17:50;28.67;;;11.25;;
1436;SDS011;712;51.026;13.792;2023-03-01T07:20:16;28.00;;;10.97;;
1436;SDS011;712;51.026;13.792;2023-03-01T07:22:41;27.10;;;11.75;;
1436;SDS011;712;51.026;13.792;2023-03-01T07:25:07;27.33;;;11.95;;
1436;SDS011;712;51.026;13.792;2023-03-01T07:27:32;30.20;;;13.77;;
1436;SDS011;712;51.026;13.792;2023-03-01T07:29:58;31.87;;;13.63;;
1436;SDS011;712;51.026;13.792;2023-03-01T07:32:23;34.23;;;12.67;;
1436;SDS011;712;51.026;13.792;2023-03-01T07:34:48;33.70;;;12.40;;
1436;SDS011;712;51.026;13.792;2023-03-01T07:37:13;30.13;;;12.13;;
1436;SDS011;712;51.026;13.792;2023-03-01T07:39:38;29.90;;;12.37;;
1436;SDS011;712;51.026;13.792;2023-03-01T07:42:04;28.83;;;12.27;;
1436;SDS011;712;51.026;13.792;2023-03-01T07:44:29;32.38;;;11.95;;
1436;SDS011;712;51.026;13.792;2023-03-01T07:46:54;26.70;;;10.95;;
1436;SDS011;712;51.026;13.792;2023-03-01T07:49:21;29.30;;;12.23;;
1436;SDS011;712;51.026;13.792;2023-03-01T07:51:46;34.33;;;13.20;;
1436;SDS011;712;51.026;13.792;2023-03-01T07:54:11;27.98;;;11.57;;
1436;SDS011;712;51.026;13.792;2023-03-01T07:56:36;27.38;;;11.52;;
1436;SDS011;712;51.026;13.792;2023-03-01T07:59:01;31.15;;;12.70;;
1436;SDS011;712;51.026;13.792;2023-03-01T08:01:26;35.78;;;12.23;;
1436;SDS011;712;51.026;13.792;2023-03-01T08:03:52;32.53;;;12.07;;
1436;SDS011;712;51.026;13.792;2023-03-01T08:06:17;29.27;;;12.17;;
1436;SDS011;712;51.026;13.792;2023-03-01T08:08:43;26.40;;;11.57;;
1436;SDS011;712;51.026;13.792;2023-03-01T08:11:10;28.90;;;12.53;;
1436;SDS011;712;51.026;13.792;2023-03-01T08:13:35;31.42;;;12.27;;
1436;SDS011;712;51.026;13.792;2023-03-01T08:16:04;30.93;;;12.70;;
1436;SDS011;712;51.026;13.792;2023-03-01T08:18:30;27.85;;;12.48;;
1436;SDS011;712;51.026;13.792;2023-03-01T08:20:55;31.33;;;12.67;;
1436;SDS011;712;51.026;13.792;2023-03-01T08:23:20;29.17;;;12.27;;
1436;SDS011;712;51.026;13.792;2023-03-01T08:25:45;25.17;;;11.87;;
1436;SDS011;712;51.026;13.792;2023-03-01T08:28:11;30.08;;;12.70;;
1436;SDS011;712;51.026;13.792;2023-03-01T08:30:36;27.33;;;12.45;;
1436;SDS011;712;51.026;13.792;2023-03-01T08:33:01;31.70;;;12.27;;
1436;SDS011;712;51.026;13.792;2023-03-01T08:35:26;29.35;;;13.25;;
1436;SDS011;712;51.026;13.792;2023-03-01T08:37:52;28.93;;;12.57;;
1436;SDS011;712;51.026;13.792;2023-03-01T08:40:17;31.20;;;12.20;;
1436;SDS011;712;51.026;13.792;2023-03-01T08:42:42;30.00;;;11.63;;
1436;SDS011;712;51.026;13.792;2023-03-01T08:45:08;27.50;;;12.13;;
1436;SDS011;712;51.026;13.792;2023-03-01T08:47:33;30.70;;;12.10;;
1436;SDS011;712;51.026;13.792;2023-03-01T08:49:58;27.20;;;11.87;;
1436;SDS011;712;51.026;13.792;2023-03-01T08:52:24;29.13;;;12.35;;
1436;SDS011;712;51.026;13.792;2023-03-01T08:54:49;25.92;;;12.13;;
1436;SDS011;712;51.026;13.792;2023-03-01T08:57:14;25.70;;;11.55;;
1436;SDS011;712;51.026;13.792;2023-03-01T08:59:39;28.65;;;12.68;;
1436;SDS011;712;51.026;13.792;2023-03-01T09:02:08;31.60;;;12.02;;
1436;SDS011;712;51.026;13.792;2023-03-01T09:04:35;28.45;;;13.40;;
1436;SDS011;712;51.026;13.792;2023-03-01T09:07:00;27.93;;;12.30;;
1436;SDS011;712;51.026;13.792;2023-03-01T09:09:25;29.23;;;12.60;;
1436;SDS011;712;51.026;13.792;2023-03-01T09:11:50;28.02;;;12.18;;
1436;SDS011;712;51.026;13.792;2023-03-01T09:14:15;29.80;;;12.87;;
1436;SDS011;712;51.026;13.792;2023-03-01T09:16:41;30.43;;;13.53;;
1436;SDS011;712;51.026;13.792;2023-03-01T09:19:06;29.05;;;12.80;;
1436;SDS011;712;51.026;13.792;2023-03-01T09:21:31;27.67;;;12.53;;
1436;SDS011;712;51.026;13.792;2023-03-01T09:23:57;26.85;;;12.77;;
1436;SDS011;712;51.026;13.792;2023-03-01T09:26:22;27.58;;;12.57;;
1436;SDS011;712;51.026;13.792;2023-03-01T09:28:48;30.27;;;12.80;;
1436;SDS011;712;51.026;13.792;2023-03-01T09:31:14;31.25;;;12.85;;
1436;SDS011;712;51.026;13.792;2023-03-01T09:33:39;28.30;;;12.57;;
1436;SDS011;712;51.026;13.792;2023-03-01T09:36:06;30.75;;;12.85;;
1436;SDS011;712;51.026;13.792;2023-03-01T09:38:32;28.48;;;12.73;;
1436;SDS011;712;51.026;13.792;2023-03-01T09:40:57;25.88;;;12.25;;
1436;SDS011;712;51.026;13.792;2023-03-01T09:45:50;33.00;;;14.18;;
1436;SDS011;712;51.026;13.792;2023-03-01T09:48:22;30.88;;;13.82;;
1436;SDS011;712;51.026;13.792;2023-03-01T09:50:49;30.27;;;13.00;;
1436;SDS011;712;51.026;13.792;2023-03-01T09:53:36;26.17;;;12.32;;
1436;SDS011;712;51.026;13.792;2023-03-01T09:56:05;29.50;;;12.65;;
1436;SDS011;712;51.026;13.792;2023-03-01T10:03:51;28.50;;;13.18;;
1436;SDS011;712;51.026;13.792;2023-03-01T10:06:22;30.08;;;12.80;;
1436;SDS011;712;51.026;13.792;2023-03-01T10:08:55;27.73;;;13.13;;
1436;SDS011;712;51.026;13.792;2023-03-01T10:11:22;31.42;;;12.75;;
1436;SDS011;712;51.026;13.792;2023-03-01T10:13:56;29.02;;;12.68;;
1436;SDS011;712;51.026;13.792;2023-03-01T10:16:28;28.27;;;12.85;;
1436;SDS011;712;51.026;13.792;2023-03-01T10:19:01;27.98;;;13.20;;
1436;SDS011;712;51.026;13.792;2023-03-01T10:21:28;28.70;;;13.18;;
1436;SDS011;712;51.026;13.792;2023-03-01T10:23:56;26.92;;;11.73;;
1436;SDS011;712;51.026;13.792;2023-03-01T10:31:16;28.83;;;13.18;;
1436;SDS011;712;51.026;13.792;2023-03-01T10:33:43;28.70;;;12.68;;
1436;SDS011;712;51.026;13.792;2023-03-01T10:36:08;25.60;;;12.10;;
1436;SDS011;712;51.026;13.792;2023-03-01T10:41:31;28.73;;;12.38;;
1436;SDS011;712;51.026;13.792;2023-03-01T10:43:57;29.27;;;13.27;;
1436;SDS011;712;51.026;13.792;2023-03-01T10:46:29;32.65;;;13.25;;
1436;SDS011;712;51.026;13.792;2023-03-01T10:51:43;27.63;;;12.98;;
1436;SDS011;712;51.026;13.792;2023-03-01T10:54:19;29.13;;;13.73;;
1436;SDS011;712;51.026;13.792;2023-03-01T10:56:48;25.88;;;11.73;;
1436;SDS011;712;51.026;13.792;2023-03-01T10:59:30;24.92;;;11.63;;
1436;SDS011;712;51.026;13.792;2023-03-01T11:04:40;26.90;;;11.82;;
1436;SDS011;712;51.026;13.792;2023-03-01T11:07:20;22.90;;;11.55;;
1436;SDS011;712;51.026;13.792;2023-03-01T11:09:45;24.20;;;11.18;;
1436;SDS011;712;51.026;13.792;2023-03-01T11:12:14;22.92;;;10.60;;
1436;SDS011;712;51.026;13.792;2023-03-01T11:14:46;21.23;;;10.45;;
1436;SDS011;712;51.026;13.792;2023-03-01T11:19:39;23.10;;;10.60;;
1436;SDS011;712;51.026;13.792;2023-03-01T11:24:43;24.63;;;11.48;;
1436;SDS011;712;51.026;13.792;2023-03-01T11:29:40;23.35;;;10.75;;
1436;SDS011;712;51.026;13.792;2023-03-01T11:32:08;23.60;;;11.60;;
1436;SDS011;712;51.026;13.792;2023-03-01T11:34:38;24.33;;;10.75;;
1436;SDS011;712;51.026;13.792;2023-03-01T11:37:09;18.98;;;9.73;;
1436;SDS011;712;51.026;13.792;2023-03-01T11:39:38;21.27;;;9.45;;
1436;SDS011;712;51.026;13.792;2023-03-01T11:44:29;21.38;;;9.85;;
1436;SDS011;712;51.026;13.792;2023-03-01T11:49:51;18.23;;;9.00;;
1436;SDS011;712;51.026;13.792;2023-03-01T11:52:29;21.08;;;9.43;;
1436;SDS011;712;51.026;13.792;2023-03-01T12:05:24;15.85;;;7.80;;
1436;SDS011;712;51.026;13.792;2023-03-01T12:10:27;17.63;;;8.52;;
1436;SDS011;712;51.026;13.792;2023-03-01T12:15:21;18.15;;;8.88;;
1436;SDS011;712;51.026;13.792;2023-03-01T12:17:54;19.98;;;8.65;;
1436;SDS011;712;51.026;13.792;2023-03-01T12:20:32;19.08;;;9.00;;
1436;SDS011;712;51.026;13.792;2023-03-01T12:28:32;21.27;;;9.68;;
1436;SDS011;712;51.026;13.792;2023-03-01T12:31:24;22.27;;;10.27;;
1436;SDS011;712;51.026;13.792;2023-03-01T12:34:11;22.77;;;10.30;;
1436;SDS011;712;51.026;13.792;2023-03-01T12:36:43;21.58;;;10.27;;
1436;SDS011;712;51.026;13.792;2023-03-01T12:41:43;23.37;;;10.70;;
1436;SDS011;712;51.026;13.792;2023-03-01T12:44:14;23.17;;;10.98;;
1436;SDS011;712;51.026;13.792;2023-03-01T12:51:34;25.92;;;11.82;;
1436;SDS011;712;51.026;13.792;2023-03-01T12:54:01;25.75;;;12.77;;
1436;SDS011;712;51.026;13.792;2023-03-01T12:56:32;29.92;;;11.93;;
1436;SDS011;712;51.026;13.792;2023-03-01T12:59:12;25.52;;;11.85;;
1436;SDS011;712;51.026;13.792;2023-03-01T13:01:40;24.40;;;11.10;;
1436;SDS011;712;51.026;13.792;2023-03-01T13:06:50;23.92;;;11.48;;
1436;SDS011;712;51.026;13.792;2023-03-01T13:09:36;25.52;;;10.95;;
1436;SDS011;712;51.026;13.792;2023-03-01T13:12:03;24.58;;;11.07;;
1436;SDS011;712;51.026;13.792;2023-03-01T13:16:56;26.15;;;11.10;;
1436;SDS011;712;51.026;13.792;2023-03-01T13:19:22;21.60;;;10.43;;
1436;SDS011;712;51.026;13.792;2023-03-01T13:21:49;22.73;;;11.02;;
1436;SDS011;712;51.026;13.792;2023-03-01T13:32:20;24.77;;;11.75;;
1436;SDS011;712;51.026;13.792;2023-03-01T13:34:46;21.60;;;9.95;;
1436;SDS011;712;51.026;13.792;2023-03-01T13:37:18;20.35;;;10.10;;
1436;SDS011;712;51.026;13.792;2023-03-01T13:39:44;22.50;;;9.93;;
1436;SDS011;712;51.026;13.792;2023-03-01T13:45:15;20.52;;;9.68;;
1436;SDS011;712;51.026;13.792;2023-03-01T13:47:41;21.50;;;9.98;;
1436;SDS011;712;51.026;13.792;2023-03-01T13:50:14;23.27;;;9.98;;
1436;SDS011;712;51.026;13.792;2023-03-01T13:55:51;21.67;;;10.33;;
1436;SDS011;712;51.026;13.792;2023-03-01T13:57:55;24.05;;;10.65;;
1436;SDS011;712;51.026;13.792;2023-03-01T14:00:26;23.50;;;10.68;;
1436;SDS011;712;51.026;13.792;2023-03-01T14:03:02;22.73;;;10.60;;
1436;SDS011;712;51.026;13.792;2023-03-01T14:05:28;23.25;;;10.93;;
1436;SDS011;712;51.026;13.792;2023-03-01T14:07:54;24.13;;;11.82;;
1436;SDS011;712;51.026;13.792;2023-03-01T14:10:20;25.48;;;11.10;;
1436;SDS011;712;51.026;13.792;2023-03-01T14:12:58;28.55;;;12.07;;
1436;SDS011;712;51.026;13.792;2023-03-01T14:15:29;24.42;;;10.77;;
1436;SDS011;712;51.026;13.792;2023-03-01T14:20:26;24.90;;;11.27;;
1436;SDS011;712;51.026;13.792;2023-03-01T14:22:52;26.35;;;11.45;;
1436;SDS011;712;51.026;13.792;2023-03-01T14:25:22;24.85;;;11.02;;
1436;SDS011;712;51.026;13.792;2023-03-01T14:27:55;23.05;;;11.00;;
1436;SDS011;712;51.026;13.792;2023-03-01T14:30:22;18.77;;;9.18;;
1436;SDS011;712;51.026;13.792;2023-03-01T14:32:55;22.33;;;10.32;;
1436;SDS011;712;51.026;13.792;2023-03-01T14:35:21;22.20;;;10.18;;
1436;SDS011;712;51.026;13.792;2023-03-01T14:37:47;21.73;;;9.95;;
1436;SDS011;712;51.026;13.792;2023-03-01T14:42:49;20.73;;;10.18;;
1436;SDS011;712;51.026;13.792;2023-03-01T14:45:14;22.87;;;10.50;;
1436;SDS011;712;51.026;13.792;2023-03-01T14:47:39;21.80;;;10.47;;
1436;SDS011;712;51.026;13.792;2023-03-01T14:50:07;25.08;;;10.63;;
1436;SDS011;712;51.026;13.792;2023-03-01T14:52:40;21.00;;;10.18;;
1436;SDS011;712;51.026;13.792;2023-03-01T14:55:12;23.50;;;11.00;;
1436;SDS011;712;51.026;13.792;2023-03-01T14:57:42;21.15;;;10.15;;
1436;SDS011;712;51.026;13.792;2023-03-01T15:00:08;23.90;;;10.75;;
1436;SDS011;712;51.026;13.792;2023-03-01T15:02:33;23.83;;;11.20;;
1436;SDS011;712;51.026;13.792;2023-03-01T15:05:00;23.10;;;10.85;;
1436;SDS011;712;51.026;13.792;2023-03-01T15:09:51;24.52;;;10.40;;
1436;SDS011;712;51.026;13.792;2023-03-01T15:14:53;24.85;;;10.63;;
1436;SDS011;712;51.026;13.792;2023-03-01T15:17:35;21.23;;;9.77;;
1436;SDS011;712;51.026;13.792;2023-03-01T15:20:01;22.35;;;10.52;;
1436;SDS011;712;51.026;13.792;2023-03-01T15:22:27;19.58;;;9.13;;
1436;SDS011;712;51.026;13.792;2023-03-01T15:24:52;22.17;;;9.27;;
1436;SDS011;712;51.026;13.792;2023-03-01T15:27:24;18.30;;;8.27;;
1436;SDS011;712;51.026;13.792;2023-03-01T15:29:52;19.88;;;8.95;;
1436;SDS011;712;51.026;13.792;2023-03-01T15:32:31;18.83;;;8.45;;
1436;SDS011;712;51.026;13.792;2023-03-01T15:40:18;17.40;;;8.23;;
1436;SDS011;712;51.026;13.792;2023-03-01T15:42:45;16.83;;;7.80;;
1436;SDS011;712;51.026;13.792;2023-03-01T15:47:35;18.43;;;8.20;;
1436;SDS011;712;51.026;13.792;2023-03-01T15:50:01;17.50;;;7.75;;
1436;SDS011;712;51.026;13.792;2023-03-01T15:52:38;19.60;;;8.53;;
1436;SDS011;712;51.026;13.792;2023-03-01T15:55:20;20.98;;;8.80;;
1436;SDS011;712;51.026;13.792;2023-03-01T15:57:46;17.08;;;8.13;;
1436;SDS011;712;51.026;13.792;2023-03-01T16:00:11;18.58;;;8.65;;
1436;SDS011;712;51.026;13.792;2023-03-01T16:02:38;19.58;;;8.75;;
1436;SDS011;712;51.026;13.792;2023-03-01T16:05:03;19.38;;;8.63;;
1436;SDS011;712;51.026;13.792;2023-03-01T16:07:28;17.00;;;7.68;;
1436;SDS011;712;51.026;13.792;2023-03-01T16:09:55;21.83;;;8.57;;
1436;SDS011;712;51.026;13.792;2023-03-01T16:12:21;17.63;;;7.57;;
1436;SDS011;712;51.026;13.792;2023-03-01T16:14:46;16.13;;;8.20;;
1436;SDS011;712;51.026;13.792;2023-03-01T16:17:11;21.03;;;9.23;;
1436;SDS011;712;51.026;13.792;2023-03-01T16:19:37;18.17;;;8.57;;
1436;SDS011;712;51.026;13.792;2023-03-01T16:22:02;16.17;;;7.85;;
1436;SDS011;712;51.026;13.792;2023-03-01T16:24:27;17.05;;;8.05;;
1436;SDS011;712;51.026;13.792;2023-03-01T16:26:52;20.55;;;9.10;;
1436;SDS011;712;51.026;13.792;2023-03-01T16:29:18;19.30;;;8.20;;
1436;SDS011;712;51.026;13.792;2023-03-01T16:31:43;18.55;;;8.48;;
1436;SDS011;712;51.026;13.792;2023-03-01T16:34:08;19.05;;;8.50;;
1436;SDS011;712;51.026;13.792;2023-03-01T16:36:33;20.83;;;8.65;;